ETH909 GABS-GOBD
Flight info
| Callsign | ETH909 |
|---|---|
| Flight time | 1h 26m |
| Altitude | 40000 |
| Route | PINVO DCT IPUGA DCT TD DCT NURAS NURAS1G |
| Aircraft | B789/H-SDE1E2E3FGHIJ2J3J4J5M1RWXY/LB1D1 |
Departure
| Time | 2026-05-05 17:26 |
|---|---|
| Airport | Modibo Keita International Airport (GABS) |
Arrival
| Time | 2026-05-05 18:53 |
|---|---|
| Airport | Blaise Diagne International Airport (GOBD) |
| Time | Latitude | Longitude | Altitude | Speed | Heading |
|---|---|---|---|---|---|
| 2026-05-05 17:01 | 12.54126 | -7.94396 | 1260 ft | 0 kts | 329° |
| 2026-05-05 17:15 | 12.54113 | -7.94388 | 1260 ft | 3 kts | 329° |
| 2026-05-05 17:16 | 12.54095 | -7.94378 | 1260 ft | 2 kts | 330° |
| 2026-05-05 17:16 | 12.54081 | -7.94368 | 1260 ft | 3 kts | 316° |
| 2026-05-05 17:16 | 12.54070 | -7.94354 | 1260 ft | 3 kts | 291° |
| 2026-05-05 17:16 | 12.54066 | -7.94336 | 1260 ft | 4 kts | 269° |
| 2026-05-05 17:17 | 12.54068 | -7.94317 | 1260 ft | 4 kts | 255° |
| 2026-05-05 17:17 | 12.54075 | -7.94298 | 1260 ft | 4 kts | 247° |
| 2026-05-05 17:17 | 12.54083 | -7.94279 | 1260 ft | 3 kts | 242° |
| 2026-05-05 17:17 | 12.54089 | -7.94267 | 1260 ft | 5 kts | 242° |
| 2026-05-05 17:18 | 12.54083 | -7.94279 | 1260 ft | 3 kts | 240° |
| 2026-05-05 17:18 | 12.54075 | -7.94293 | 1260 ft | 8 kts | 239° |
| 2026-05-05 17:19 | 12.54075 | -7.94294 | 1260 ft | 0 kts | 239° |
| 2026-05-05 17:20 | 12.54074 | -7.94294 | 1260 ft | 0 kts | 239° |
| 2026-05-05 17:20 | 12.54068 | -7.94305 | 1260 ft | 5 kts | 239° |
| 2026-05-05 17:21 | 12.54040 | -7.94355 | 1260 ft | 8 kts | 239° |
| 2026-05-05 17:21 | 12.54006 | -7.94381 | 1260 ft | 9 kts | 177° |
| 2026-05-05 17:21 | 12.53929 | -7.94346 | 1260 ft | 16 kts | 149° |
| 2026-05-05 17:22 | 12.53750 | -7.94274 | 1260 ft | 13 kts | 227° |
| 2026-05-05 17:22 | 12.53697 | -7.94379 | 1260 ft | 19 kts | 242° |
| 2026-05-05 17:22 | 12.53624 | -7.94510 | 1260 ft | 24 kts | 239° |
| 2026-05-05 17:22 | 12.53535 | -7.94666 | 1260 ft | 27 kts | 240° |
| 2026-05-05 17:23 | 12.53438 | -7.94841 | 1260 ft | 29 kts | 240° |
| 2026-05-05 17:23 | 12.53337 | -7.95028 | 1260 ft | 31 kts | 241° |
| 2026-05-05 17:23 | 12.53229 | -7.95224 | 1260 ft | 32 kts | 240° |
| 2026-05-05 17:23 | 12.53117 | -7.95426 | 1260 ft | 33 kts | 240° |
| 2026-05-05 17:24 | 12.53004 | -7.95632 | 1260 ft | 34 kts | 240° |
| 2026-05-05 17:24 | 12.52898 | -7.95828 | 1260 ft | 30 kts | 241° |
| 2026-05-05 17:24 | 12.52814 | -7.95984 | 1260 ft | 17 kts | 239° |
| 2026-05-05 17:24 | 12.52770 | -7.96060 | 1260 ft | 8 kts | 265° |
| 2026-05-05 17:25 | 12.52769 | -7.96112 | 1260 ft | 8 kts | 237° |
| 2026-05-05 17:25 | 12.52752 | -7.96122 | 1260 ft | 2 kts | 182° |
| 2026-05-05 17:25 | 12.52745 | -7.96100 | 1260 ft | 5 kts | 64° |
| 2026-05-05 17:25 | 12.52769 | -7.96051 | 1260 ft | 10 kts | 61° |
| 2026-05-05 17:26 | 12.52853 | -7.95898 | 1260 ft | 53 kts | 60° |
| 2026-05-05 17:26 | 12.53175 | -7.95319 | 1261 ft | 131 kts | 62° |
| 2026-05-05 17:26 | 12.53728 | -7.94328 | 1390 ft | 176 kts | 58° |
| 2026-05-05 17:26 | 12.54373 | -7.93243 | 2177 ft | 181 kts | 58° |
| 2026-05-05 17:27 | 12.55013 | -7.92116 | 3071 ft | 187 kts | 56° |
| 2026-05-05 17:27 | 12.56001 | -7.91241 | 3870 ft | 198 kts | 29° |
| 2026-05-05 17:27 | 12.57377 | -7.90933 | 4779 ft | 211 kts | 0° |
| 2026-05-05 17:27 | 12.58766 | -7.91406 | 5884 ft | 213 kts | 330° |
| 2026-05-05 17:28 | 12.59810 | -7.92529 | 6745 ft | 229 kts | 303° |
| 2026-05-05 17:28 | 12.60286 | -7.94108 | 7547 ft | 241 kts | 277° |
| 2026-05-05 17:28 | 12.60228 | -7.95914 | 7905 ft | 268 kts | 266° |
| 2026-05-05 17:28 | 12.60112 | -7.97918 | 8268 ft | 296 kts | 267° |
| 2026-05-05 17:29 | 12.60003 | -8.00078 | 8969 ft | 309 kts | 267° |
| 2026-05-05 17:29 | 12.59986 | -8.02280 | 9970 ft | 310 kts | 271° |
| 2026-05-05 17:29 | 12.60058 | -8.04459 | 10927 ft | 312 kts | 272° |
| 2026-05-05 17:29 | 12.60124 | -8.06706 | 11660 ft | 322 kts | 271° |
| 2026-05-05 17:30 | 12.60192 | -8.09050 | 12200 ft | 338 kts | 271° |
| 2026-05-05 17:30 | 12.60269 | -8.11516 | 12668 ft | 354 kts | 272° |
| 2026-05-05 17:30 | 12.60345 | -8.14089 | 13165 ft | 368 kts | 271° |
| 2026-05-05 17:30 | 12.60339 | -8.16747 | 13737 ft | 378 kts | 270° |
| 2026-05-05 17:31 | 12.60485 | -8.19455 | 14366 ft | 385 kts | 275° |
| 2026-05-05 17:31 | 12.60824 | -8.22203 | 15043 ft | 391 kts | 278° |
| 2026-05-05 17:31 | 12.61292 | -8.24962 | 15693 ft | 397 kts | 281° |
| 2026-05-05 17:31 | 12.61828 | -8.27707 | 16363 ft | 401 kts | 282° |
| 2026-05-05 17:32 | 12.62414 | -8.30519 | 17050 ft | 405 kts | 282° |
| 2026-05-05 17:32 | 12.63019 | -8.33345 | 17724 ft | 408 kts | 282° |
| 2026-05-05 17:32 | 12.63637 | -8.36194 | 18383 ft | 412 kts | 283° |
| 2026-05-05 17:32 | 12.64263 | -8.39062 | 19045 ft | 414 kts | 283° |
| 2026-05-05 17:33 | 12.64894 | -8.41953 | 19697 ft | 417 kts | 282° |
| 2026-05-05 17:33 | 12.65529 | -8.44862 | 20326 ft | 420 kts | 282° |
| 2026-05-05 17:33 | 12.66169 | -8.47790 | 20929 ft | 423 kts | 282° |
| 2026-05-05 17:33 | 12.66813 | -8.50740 | 21526 ft | 426 kts | 282° |
| 2026-05-05 17:34 | 12.67460 | -8.53709 | 22113 ft | 429 kts | 282° |
| 2026-05-05 17:34 | 12.68108 | -8.56696 | 22691 ft | 431 kts | 282° |
| 2026-05-05 17:34 | 12.68763 | -8.59703 | 23242 ft | 434 kts | 282° |
| 2026-05-05 17:34 | 12.69416 | -8.62699 | 23792 ft | 437 kts | 282° |
| 2026-05-05 17:35 | 12.70078 | -8.65744 | 24306 ft | 440 kts | 282° |
| 2026-05-05 17:35 | 12.70744 | -8.68811 | 24857 ft | 442 kts | 282° |
| 2026-05-05 17:35 | 12.71413 | -8.71887 | 25452 ft | 443 kts | 282° |
| 2026-05-05 17:35 | 12.72081 | -8.74967 | 26053 ft | 443 kts | 282° |
| 2026-05-05 17:36 | 12.72749 | -8.78051 | 26611 ft | 444 kts | 283° |
| 2026-05-05 17:36 | 12.73419 | -8.81133 | 27125 ft | 446 kts | 283° |
| 2026-05-05 17:36 | 12.74093 | -8.84235 | 27628 ft | 448 kts | 283° |
| 2026-05-05 17:36 | 12.74771 | -8.87357 | 28119 ft | 449 kts | 283° |
| 2026-05-05 17:37 | 12.75451 | -8.90501 | 28602 ft | 451 kts | 283° |
| 2026-05-05 17:37 | 12.76127 | -8.93637 | 29063 ft | 453 kts | 283° |
| 2026-05-05 17:37 | 12.76812 | -8.96805 | 29529 ft | 455 kts | 283° |
| 2026-05-05 17:37 | 12.77488 | -8.99930 | 29987 ft | 456 kts | 283° |
| 2026-05-05 17:38 | 12.78185 | -9.03151 | 30449 ft | 458 kts | 283° |
| 2026-05-05 17:38 | 12.78866 | -9.06302 | 30848 ft | 461 kts | 283° |
| 2026-05-05 17:38 | 12.79557 | -9.09501 | 31245 ft | 463 kts | 283° |
| 2026-05-05 17:38 | 12.80256 | -9.12744 | 31651 ft | 465 kts | 283° |
| 2026-05-05 17:39 | 12.80955 | -9.15985 | 32037 ft | 467 kts | 282° |
| 2026-05-05 17:39 | 12.81656 | -9.19241 | 32398 ft | 469 kts | 282° |
| 2026-05-05 17:39 | 12.82359 | -9.22514 | 32817 ft | 470 kts | 282° |
| 2026-05-05 17:39 | 12.83059 | -9.25775 | 33327 ft | 469 kts | 282° |
| 2026-05-05 17:40 | 12.83752 | -9.28996 | 33809 ft | 468 kts | 282° |
| 2026-05-05 17:40 | 12.84450 | -9.32243 | 34318 ft | 467 kts | 282° |
| 2026-05-05 17:40 | 12.85148 | -9.35496 | 34805 ft | 466 kts | 282° |
| 2026-05-05 17:40 | 12.85841 | -9.38726 | 35284 ft | 465 kts | 281° |
| 2026-05-05 17:41 | 12.86532 | -9.41958 | 35739 ft | 464 kts | 281° |
| 2026-05-05 17:41 | 12.87224 | -9.45185 | 36186 ft | 463 kts | 281° |
| 2026-05-05 17:41 | 12.87913 | -9.48400 | 36644 ft | 461 kts | 281° |
| 2026-05-05 17:41 | 12.88600 | -9.51604 | 37051 ft | 459 kts | 281° |
| 2026-05-05 17:42 | 12.89269 | -9.54735 | 37432 ft | 458 kts | 281° |
| 2026-05-05 17:42 | 12.89961 | -9.57970 | 37775 ft | 457 kts | 281° |
| 2026-05-05 17:42 | 12.90633 | -9.61114 | 38122 ft | 456 kts | 281° |
| 2026-05-05 17:42 | 12.91309 | -9.64282 | 38443 ft | 456 kts | 281° |
| 2026-05-05 17:43 | 12.91986 | -9.67458 | 38734 ft | 456 kts | 281° |
| 2026-05-05 17:43 | 12.92663 | -9.70634 | 39039 ft | 455 kts | 281° |
| 2026-05-05 17:43 | 12.93336 | -9.73793 | 39362 ft | 453 kts | 281° |
| 2026-05-05 17:43 | 12.94002 | -9.76941 | 39655 ft | 450 kts | 281° |
| 2026-05-05 17:44 | 12.94661 | -9.80064 | 39807 ft | 448 kts | 281° |
| 2026-05-05 17:44 | 12.95979 | -9.86335 | 39845 ft | 450 kts | 281° |
| 2026-05-05 17:45 | 12.97296 | -9.92605 | 39836 ft | 450 kts | 281° |
| 2026-05-05 17:45 | 12.98602 | -9.98830 | 39831 ft | 449 kts | 281° |
| 2026-05-05 17:46 | 12.99911 | -10.05084 | 39844 ft | 449 kts | 280° |
| 2026-05-05 17:46 | 13.01218 | -10.11343 | 39836 ft | 449 kts | 280° |
| 2026-05-05 17:47 | 13.02525 | -10.17604 | 39834 ft | 449 kts | 280° |
| 2026-05-05 17:47 | 13.03829 | -10.23848 | 39844 ft | 448 kts | 280° |
| 2026-05-05 17:48 | 13.05131 | -10.30088 | 39833 ft | 448 kts | 280° |
| 2026-05-05 17:48 | 13.06425 | -10.36301 | 39835 ft | 448 kts | 280° |
| 2026-05-05 17:49 | 13.07724 | -10.42547 | 39843 ft | 448 kts | 280° |
| 2026-05-05 17:49 | 13.09022 | -10.48797 | 39830 ft | 448 kts | 280° |
| 2026-05-05 17:50 | 13.10311 | -10.55005 | 39837 ft | 447 kts | 280° |
| 2026-05-05 17:50 | 13.11602 | -10.61242 | 39841 ft | 447 kts | 280° |
| 2026-05-05 17:51 | 13.12893 | -10.67484 | 39828 ft | 447 kts | 280° |
| 2026-05-05 17:51 | 13.14181 | -10.73723 | 39840 ft | 447 kts | 280° |
| 2026-05-05 17:52 | 13.15472 | -10.79981 | 39835 ft | 448 kts | 280° |
| 2026-05-05 17:52 | 13.16759 | -10.86224 | 39829 ft | 447 kts | 280° |
| 2026-05-05 17:53 | 13.18034 | -10.92415 | 39842 ft | 447 kts | 280° |
| 2026-05-05 17:53 | 13.19316 | -10.98650 | 39833 ft | 447 kts | 280° |
| 2026-05-05 17:54 | 13.20599 | -11.04901 | 39832 ft | 447 kts | 280° |
| 2026-05-05 17:54 | 13.21877 | -11.11139 | 39843 ft | 447 kts | 280° |
| 2026-05-05 17:55 | 13.23155 | -11.17370 | 39830 ft | 447 kts | 279° |
| 2026-05-05 17:55 | 13.24422 | -11.23574 | 39835 ft | 446 kts | 279° |
| 2026-05-05 17:56 | 13.25695 | -11.29810 | 39842 ft | 447 kts | 279° |
| 2026-05-05 17:56 | 13.26966 | -11.36044 | 39828 ft | 446 kts | 279° |
| 2026-05-05 17:57 | 13.28236 | -11.42274 | 39839 ft | 447 kts | 279° |
| 2026-05-05 17:57 | 13.29509 | -11.48527 | 39838 ft | 447 kts | 279° |
| 2026-05-05 17:58 | 13.30778 | -11.54769 | 39829 ft | 445 kts | 279° |
| 2026-05-05 17:58 | 13.32029 | -11.60947 | 39842 ft | 446 kts | 279° |
| 2026-05-05 17:59 | 13.33292 | -11.67185 | 39846 ft | 446 kts | 279° |
| 2026-05-05 17:59 | 13.34553 | -11.73415 | 39831 ft | 445 kts | 279° |
| 2026-05-05 18:00 | 13.35805 | -11.79592 | 39838 ft | 445 kts | 279° |
| 2026-05-05 18:00 | 13.37061 | -11.85807 | 39844 ft | 445 kts | 279° |
| 2026-05-05 18:01 | 13.38316 | -11.92029 | 39831 ft | 445 kts | 279° |
| 2026-05-05 18:01 | 13.39566 | -11.98236 | 39842 ft | 445 kts | 279° |
| 2026-05-05 18:02 | 13.40817 | -12.04472 | 39844 ft | 445 kts | 279° |
| 2026-05-05 18:02 | 13.42061 | -12.10694 | 39831 ft | 445 kts | 279° |
| 2026-05-05 18:03 | 13.43300 | -12.16876 | 39844 ft | 445 kts | 279° |
| 2026-05-05 18:03 | 13.44548 | -12.23099 | 39842 ft | 445 kts | 279° |
| 2026-05-05 18:04 | 13.45794 | -12.29335 | 39830 ft | 445 kts | 279° |
| 2026-05-05 18:04 | 13.47041 | -12.35558 | 39842 ft | 445 kts | 279° |
| 2026-05-05 18:05 | 13.48285 | -12.41791 | 39845 ft | 445 kts | 279° |
| 2026-05-05 18:05 | 13.49515 | -12.47978 | 39831 ft | 445 kts | 279° |
| 2026-05-05 18:06 | 13.50752 | -12.54210 | 39840 ft | 445 kts | 279° |
| 2026-05-05 18:06 | 13.51989 | -12.60444 | 39844 ft | 445 kts | 279° |
| 2026-05-05 18:07 | 13.53228 | -12.66681 | 39831 ft | 446 kts | 278° |
| 2026-05-05 18:07 | 13.54461 | -12.72916 | 39843 ft | 445 kts | 278° |
| 2026-05-05 18:08 | 13.55691 | -12.79128 | 39843 ft | 446 kts | 278° |
| 2026-05-05 18:08 | 13.56925 | -12.85367 | 39833 ft | 446 kts | 278° |
| 2026-05-05 18:09 | 13.58158 | -12.91620 | 39846 ft | 446 kts | 278° |
| 2026-05-05 18:09 | 13.59388 | -12.97871 | 39841 ft | 446 kts | 278° |
| 2026-05-05 18:10 | 13.60610 | -13.04083 | 39837 ft | 446 kts | 278° |
| 2026-05-05 18:10 | 13.61839 | -13.10341 | 39849 ft | 447 kts | 278° |
| 2026-05-05 18:11 | 13.63066 | -13.16598 | 39840 ft | 447 kts | 278° |
| 2026-05-05 18:11 | 13.64292 | -13.22855 | 39842 ft | 447 kts | 278° |
| 2026-05-05 18:12 | 13.65511 | -13.29091 | 39851 ft | 447 kts | 278° |
| 2026-05-05 18:12 | 13.66735 | -13.35349 | 39838 ft | 446 kts | 278° |
| 2026-05-05 18:13 | 13.67953 | -13.41601 | 39845 ft | 447 kts | 278° |
| 2026-05-05 18:13 | 13.69175 | -13.47878 | 39852 ft | 447 kts | 278° |
| 2026-05-05 18:14 | 13.70393 | -13.54139 | 39839 ft | 447 kts | 278° |
| 2026-05-05 18:14 | 13.71613 | -13.60415 | 39851 ft | 447 kts | 278° |
| 2026-05-05 18:15 | 13.72865 | -13.66634 | 39854 ft | 449 kts | 280° |
| 2026-05-05 18:15 | 13.74522 | -13.72843 | 39840 ft | 449 kts | 283° |
| 2026-05-05 18:16 | 13.76248 | -13.79025 | 39848 ft | 450 kts | 282° |
| 2026-05-05 18:16 | 13.77959 | -13.85219 | 39850 ft | 450 kts | 282° |
| 2026-05-05 18:17 | 13.79649 | -13.91365 | 39838 ft | 450 kts | 282° |
| 2026-05-05 18:17 | 13.81348 | -13.97552 | 39849 ft | 450 kts | 282° |
| 2026-05-05 18:18 | 13.83049 | -14.03753 | 39843 ft | 450 kts | 282° |
| 2026-05-05 18:18 | 13.84748 | -14.09951 | 39833 ft | 450 kts | 282° |
| 2026-05-05 18:19 | 13.86444 | -14.16144 | 39846 ft | 450 kts | 282° |
| 2026-05-05 18:19 | 13.88127 | -14.22291 | 39836 ft | 448 kts | 282° |
| 2026-05-05 18:20 | 13.89825 | -14.28506 | 39832 ft | 448 kts | 282° |
| 2026-05-05 18:20 | 13.91499 | -14.34642 | 39841 ft | 449 kts | 282° |
| 2026-05-05 18:21 | 13.93184 | -14.40821 | 39826 ft | 448 kts | 282° |
| 2026-05-05 18:21 | 13.94866 | -14.46990 | 39831 ft | 448 kts | 282° |
| 2026-05-05 18:22 | 13.96546 | -14.53171 | 39833 ft | 448 kts | 282° |
| 2026-05-05 18:22 | 13.98214 | -14.59311 | 39819 ft | 448 kts | 282° |
| 2026-05-05 18:23 | 13.99886 | -14.65470 | 39836 ft | 447 kts | 282° |
| 2026-05-05 18:23 | 14.01553 | -14.71614 | 39852 ft | 444 kts | 282° |
| 2026-05-05 18:24 | 14.03211 | -14.77739 | 39854 ft | 443 kts | 282° |
| 2026-05-05 18:24 | 14.04040 | -14.80802 | 39718 ft | 443 kts | 282° |
| 2026-05-05 18:24 | 14.04855 | -14.83816 | 39216 ft | 443 kts | 282° |
| 2026-05-05 18:24 | 14.05681 | -14.86870 | 38676 ft | 442 kts | 282° |
| 2026-05-05 18:25 | 14.06503 | -14.89910 | 38124 ft | 439 kts | 282° |
| 2026-05-05 18:25 | 14.07057 | -14.91957 | 37751 ft | 438 kts | 282° |
| 2026-05-05 18:25 | 14.08134 | -14.95944 | 37017 ft | 435 kts | 282° |
| 2026-05-05 18:25 | 14.08943 | -14.98945 | 36462 ft | 434 kts | 282° |
| 2026-05-05 18:26 | 14.09754 | -15.01956 | 35914 ft | 437 kts | 282° |
| 2026-05-05 18:26 | 14.10568 | -15.04986 | 35366 ft | 443 kts | 282° |
| 2026-05-05 18:26 | 14.11395 | -15.08066 | 34803 ft | 448 kts | 282° |
| 2026-05-05 18:26 | 14.12218 | -15.11125 | 34227 ft | 452 kts | 282° |
| 2026-05-05 18:27 | 14.13061 | -15.14257 | 33628 ft | 455 kts | 282° |
| 2026-05-05 18:27 | 14.13906 | -15.17396 | 33027 ft | 454 kts | 282° |
| 2026-05-05 18:27 | 14.14743 | -15.20509 | 32447 ft | 452 kts | 282° |
| 2026-05-05 18:27 | 14.15586 | -15.23645 | 31883 ft | 453 kts | 283° |
| 2026-05-05 18:28 | 14.17258 | -15.29871 | 30753 ft | 447 kts | 283° |
| 2026-05-05 18:28 | 14.18081 | -15.32936 | 30189 ft | 441 kts | 284° |
| 2026-05-05 18:28 | 14.18891 | -15.35957 | 29633 ft | 434 kts | 284° |
| 2026-05-05 18:29 | 14.19681 | -15.38899 | 29091 ft | 428 kts | 284° |
| 2026-05-05 18:29 | 14.20469 | -15.41836 | 28553 ft | 424 kts | 284° |
| 2026-05-05 18:29 | 14.21251 | -15.44759 | 28019 ft | 422 kts | 284° |
| 2026-05-05 18:29 | 14.22086 | -15.47667 | 27467 ft | 424 kts | 288° |
| 2026-05-05 18:30 | 14.23223 | -15.50487 | 26894 ft | 427 kts | 292° |
| 2026-05-05 18:30 | 14.24479 | -15.53251 | 26390 ft | 427 kts | 293° |
| 2026-05-05 18:30 | 14.25769 | -15.56002 | 25944 ft | 425 kts | 293° |
| 2026-05-05 18:30 | 14.27059 | -15.58737 | 25523 ft | 425 kts | 294° |
| 2026-05-05 18:31 | 14.28358 | -15.61499 | 25108 ft | 425 kts | 293° |
| 2026-05-05 18:31 | 14.29637 | -15.64224 | 24701 ft | 424 kts | 293° |
| 2026-05-05 18:31 | 14.30901 | -15.66921 | 24300 ft | 423 kts | 293° |
| 2026-05-05 18:31 | 14.32181 | -15.69655 | 23894 ft | 423 kts | 293° |
| 2026-05-05 18:32 | 14.33456 | -15.72383 | 23490 ft | 421 kts | 293° |
| 2026-05-05 18:32 | 14.34725 | -15.75098 | 23088 ft | 419 kts | 293° |
| 2026-05-05 18:32 | 14.35988 | -15.77801 | 22688 ft | 417 kts | 293° |
| 2026-05-05 18:32 | 14.37246 | -15.80492 | 22291 ft | 416 kts | 293° |
| 2026-05-05 18:33 | 14.38499 | -15.83174 | 21896 ft | 414 kts | 293° |
| 2026-05-05 18:33 | 14.39742 | -15.85837 | 21503 ft | 412 kts | 293° |
| 2026-05-05 18:33 | 14.40984 | -15.88502 | 21110 ft | 411 kts | 294° |
| 2026-05-05 18:33 | 14.42220 | -15.91152 | 20719 ft | 409 kts | 294° |
| 2026-05-05 18:34 | 14.43438 | -15.93763 | 20333 ft | 408 kts | 294° |
| 2026-05-05 18:34 | 14.44661 | -15.96384 | 19946 ft | 406 kts | 294° |
| 2026-05-05 18:34 | 14.45883 | -15.99011 | 19552 ft | 404 kts | 294° |
| 2026-05-05 18:34 | 14.47091 | -16.01607 | 19173 ft | 401 kts | 294° |
| 2026-05-05 18:35 | 14.48293 | -16.04190 | 18792 ft | 398 kts | 294° |
| 2026-05-05 18:35 | 14.49493 | -16.06766 | 18411 ft | 397 kts | 294° |
| 2026-05-05 18:35 | 14.50688 | -16.09330 | 18032 ft | 395 kts | 294° |
| 2026-05-05 18:35 | 14.51877 | -16.11882 | 17654 ft | 394 kts | 294° |
| 2026-05-05 18:36 | 14.53057 | -16.14416 | 17279 ft | 393 kts | 294° |
| 2026-05-05 18:36 | 14.54241 | -16.16963 | 16902 ft | 391 kts | 294° |
| 2026-05-05 18:36 | 14.55398 | -16.19452 | 16533 ft | 389 kts | 294° |
| 2026-05-05 18:36 | 14.56563 | -16.21961 | 16163 ft | 387 kts | 294° |
| 2026-05-05 18:37 | 14.57692 | -16.24393 | 15804 ft | 385 kts | 294° |
| 2026-05-05 18:37 | 14.58849 | -16.26886 | 15437 ft | 384 kts | 294° |
| 2026-05-05 18:37 | 14.59999 | -16.29364 | 15073 ft | 382 kts | 294° |
| 2026-05-05 18:37 | 14.61147 | -16.31839 | 14709 ft | 381 kts | 295° |
| 2026-05-05 18:38 | 14.62283 | -16.34288 | 14351 ft | 379 kts | 295° |
| 2026-05-05 18:38 | 14.63421 | -16.36738 | 13991 ft | 377 kts | 295° |
| 2026-05-05 18:38 | 14.64539 | -16.39146 | 13638 ft | 375 kts | 295° |
| 2026-05-05 18:38 | 14.65661 | -16.41567 | 13284 ft | 374 kts | 295° |
| 2026-05-05 18:39 | 14.66779 | -16.43980 | 12930 ft | 369 kts | 295° |
| 2026-05-05 18:39 | 14.67871 | -16.46340 | 12629 ft | 359 kts | 295° |
| 2026-05-05 18:39 | 14.68934 | -16.48638 | 12387 ft | 355 kts | 295° |
| 2026-05-05 18:39 | 14.70005 | -16.50952 | 12119 ft | 358 kts | 295° |
| 2026-05-05 18:40 | 14.71065 | -16.53250 | 11800 ft | 351 kts | 295° |
| 2026-05-05 18:40 | 14.72105 | -16.55496 | 11492 ft | 341 kts | 295° |
| 2026-05-05 18:40 | 14.73103 | -16.57649 | 11191 ft | 333 kts | 295° |
| 2026-05-05 18:40 | 14.74099 | -16.59805 | 10897 ft | 326 kts | 295° |
| 2026-05-05 18:41 | 14.75054 | -16.61869 | 10590 ft | 319 kts | 295° |
| 2026-05-05 18:41 | 14.76001 | -16.63916 | 10299 ft | 313 kts | 295° |
| 2026-05-05 18:41 | 14.76926 | -16.65919 | 10060 ft | 305 kts | 295° |
| 2026-05-05 18:41 | 14.77829 | -16.67876 | 9858 ft | 298 kts | 295° |
| 2026-05-05 18:42 | 14.78717 | -16.69798 | 9531 ft | 295 kts | 295° |
| 2026-05-05 18:42 | 14.79595 | -16.71702 | 9171 ft | 294 kts | 295° |
| 2026-05-05 18:42 | 14.80457 | -16.73573 | 8846 ft | 291 kts | 295° |
| 2026-05-05 18:42 | 14.81334 | -16.75477 | 8548 ft | 287 kts | 295° |
| 2026-05-05 18:43 | 14.82187 | -16.77326 | 8308 ft | 282 kts | 295° |
| 2026-05-05 18:43 | 14.83025 | -16.79141 | 7993 ft | 275 kts | 295° |
| 2026-05-05 18:43 | 14.83827 | -16.80879 | 7820 ft | 264 kts | 295° |
| 2026-05-05 18:43 | 14.84604 | -16.82566 | 7599 ft | 262 kts | 295° |
| 2026-05-05 18:44 | 14.85382 | -16.84255 | 7376 ft | 259 kts | 295° |
| 2026-05-05 18:44 | 14.86157 | -16.85935 | 7148 ft | 257 kts | 295° |
| 2026-05-05 18:44 | 14.86921 | -16.87598 | 6878 ft | 254 kts | 295° |
| 2026-05-05 18:44 | 14.87663 | -16.89213 | 6646 ft | 243 kts | 295° |
| 2026-05-05 18:45 | 14.88373 | -16.90752 | 6464 ft | 233 kts | 295° |
| 2026-05-05 18:45 | 14.89063 | -16.92253 | 6247 ft | 230 kts | 295° |
| 2026-05-05 18:45 | 14.89746 | -16.93740 | 6012 ft | 228 kts | 295° |
| 2026-05-05 18:45 | 14.90427 | -16.95220 | 5794 ft | 228 kts | 295° |
| 2026-05-05 18:46 | 14.91089 | -16.96679 | 5570 ft | 228 kts | 293° |
| 2026-05-05 18:46 | 14.91322 | -16.98262 | 5378 ft | 216 kts | 271° |
| 2026-05-05 18:46 | 14.91303 | -16.99761 | 5222 ft | 205 kts | 270° |
| 2026-05-05 18:46 | 14.91289 | -17.01227 | 5010 ft | 204 kts | 270° |
| 2026-05-05 18:47 | 14.91276 | -17.02680 | 4809 ft | 200 kts | 270° |
| 2026-05-05 18:47 | 14.91288 | -17.04108 | 4564 ft | 198 kts | 272° |
| 2026-05-05 18:47 | 14.91319 | -17.05512 | 4365 ft | 192 kts | 271° |
| 2026-05-05 18:47 | 14.91166 | -17.06863 | 4299 ft | 191 kts | 256° |
| 2026-05-05 18:48 | 14.90434 | -17.07964 | 4149 ft | 188 kts | 226° |
| 2026-05-05 18:48 | 14.89316 | -17.08609 | 4083 ft | 184 kts | 204° |
| 2026-05-05 18:48 | 14.88042 | -17.08843 | 3937 ft | 187 kts | 188° |
| 2026-05-05 18:48 | 14.86718 | -17.08818 | 3695 ft | 192 kts | 178° |
| 2026-05-05 18:49 | 14.85421 | -17.08612 | 3606 ft | 187 kts | 172° |
| 2026-05-05 18:49 | 14.84136 | -17.08307 | 3351 ft | 191 kts | 168° |
| 2026-05-05 18:49 | 14.82839 | -17.07938 | 3017 ft | 195 kts | 167° |
| 2026-05-05 18:49 | 14.81544 | -17.07648 | 2931 ft | 184 kts | 174° |
| 2026-05-05 18:50 | 14.80295 | -17.07561 | 2703 ft | 176 kts | 181° |
| 2026-05-05 18:50 | 14.79123 | -17.07475 | 2502 ft | 163 kts | 179° |
| 2026-05-05 18:50 | 14.78019 | -17.07370 | 2313 ft | 162 kts | 178° |
| 2026-05-05 18:50 | 14.76898 | -17.07292 | 2107 ft | 161 kts | 180° |
| 2026-05-05 18:51 | 14.75777 | -17.07248 | 1910 ft | 160 kts | 182° |
| 2026-05-05 18:51 | 14.74672 | -17.07270 | 1737 ft | 157 kts | 185° |
| 2026-05-05 18:51 | 14.73583 | -17.07305 | 1509 ft | 156 kts | 185° |
| 2026-05-05 18:51 | 14.72505 | -17.07299 | 1283 ft | 153 kts | 184° |
| 2026-05-05 18:52 | 14.71458 | -17.07303 | 1052 ft | 149 kts | 184° |
| 2026-05-05 18:52 | 14.70422 | -17.07311 | 768 ft | 150 kts | 184° |
| 2026-05-05 18:52 | 14.69372 | -17.07304 | 522 ft | 150 kts | 183° |
| 2026-05-05 18:52 | 14.68333 | -17.07293 | 329 ft | 148 kts | 183° |
| 2026-05-05 18:53 | 14.67409 | -17.07291 | 302 ft | 98 kts | 180° |
| 2026-05-05 18:53 | 14.66957 | -17.07290 | 302 ft | 61 kts | 181° |
| 2026-05-05 18:53 | 14.66607 | -17.07267 | 302 ft | 39 kts | 166° |
| 2026-05-05 18:53 | 14.66442 | -17.07207 | 302 ft | 22 kts | 150° |
| 2026-05-05 18:54 | 14.66360 | -17.07137 | 302 ft | 16 kts | 101° |
| 2026-05-05 18:54 | 14.66407 | -17.07085 | 302 ft | 13 kts | 4° |
| 2026-05-05 18:54 | 14.66524 | -17.07089 | 302 ft | 20 kts | 357° |
| 2026-05-05 18:54 | 14.66682 | -17.07088 | 302 ft | 25 kts | 0° |
| 2026-05-05 18:55 | 14.66872 | -17.07090 | 302 ft | 28 kts | 359° |
| 2026-05-05 18:55 | 14.67019 | -17.07091 | 302 ft | 15 kts | 2° |
| 2026-05-05 18:55 | 14.67083 | -17.07041 | 302 ft | 10 kts | 89° |
| 2026-05-05 18:55 | 14.67052 | -17.06982 | 302 ft | 10 kts | 154° |
| 2026-05-05 18:56 | 14.66970 | -17.06976 | 302 ft | 10 kts | 180° |
| 2026-05-05 18:56 | 14.66940 | -17.06964 | 302 ft | 3 kts | 130° |
| 2026-05-05 18:56 | 14.66945 | -17.06916 | 302 ft | 11 kts | 63° |
| 2026-05-05 18:56 | 14.66969 | -17.06870 | 302 ft | 4 kts | 61° |
| 2026-05-05 18:57 | 14.66983 | -17.06844 | 302 ft | 3 kts | 61° |
| 2026-05-05 18:57 | 14.66984 | -17.06841 | 302 ft | 0 kts | 61° |